Time;durP1;ratioP1;P1;durP2;ratioP2;P2;SDS_P1;SDS_P2;PMS_P1;PMS_P2;Temp;Humidity;BMP_temperature;BMP_pressure;BME280_temperature;BME280_humidity;BME280_pressure;Samples;Min_cycle;Max_cycle;Signal;HPM_P1;HPM_P2
2021/09/15 04:44:07;;;;;;;36.85;25.80;;;;;;;11.08;78.87;100121.81;5005160;28;105982;-64
2021/09/15 04:46:33;;;;;;;42.40;28.98;;;;;;;11.14;79.34;100127.25;5004567;28;105921;-66
2021/09/15 04:48:58;;;;;;;39.08;28.42;;;;;;;11.23;78.86;100121.88;5004981;28;105956;-67
2021/09/15 04:51:23;;;;;;;42.20;28.25;;;;;;;11.34;79.30;100126.81;5003867;28;105876;-68
2021/09/15 04:53:49;;;;;;;36.17;26.27;;;;;;;11.45;79.51;100126.38;5004421;28;106052;-68
2021/09/15 04:56:14;;;;;;;34.30;25.33;;;;;;;11.58;79.25;100128.47;5004720;28;105928;-67
2021/09/15 04:58:39;;;;;;;34.97;23.48;;;;;;;11.71;79.69;100125.19;5004106;28;106319;-69
2021/09/15 05:01:05;;;;;;;29.77;23.48;;;;;;;11.85;79.94;100126.25;5003933;28;105967;-69
2021/09/15 05:03:31;;;;;;;30.35;23.35;;;;;;;11.99;79.45;100132.69;5003633;28;105967;-70
2021/09/15 05:05:56;;;;;;;32.90;23.40;;;;;;;12.11;79.90;100125.91;5004337;28;105944;-66
2021/09/15 05:08:22;;;;;;;33.63;22.50;;;;;;;12.25;80.34;100128.78;5004352;28;106249;-69
2021/09/15 05:10:47;;;;;;;29.42;21.60;;;;;;;12.36;79.48;100125.63;5004102;28;106076;-67
2021/09/15 05:13:12;;;;;;;30.73;22.92;;;;;;;12.47;79.48;100111.81;5003785;28;106135;-64
2021/09/15 05:15:38;;;;;;;28.25;21.63;;;;;;;12.60;79.55;100115.69;4992522;28;105984;-63
2021/09/15 05:18:03;;;;;;;32.70;21.75;;;;;;;12.72;79.71;100122.22;4984848;28;106272;-65
2021/09/15 05:20:28;;;;;;;29.50;21.73;;;;;;;12.83;79.74;100111.03;4983899;28;105982;-68
2021/09/15 05:22:54;;;;;;;30.00;21.05;;;;;;;12.96;79.50;100109.56;4983843;28;105833;-69
2021/09/15 05:25:22;;;;;;;30.23;21.55;;;;;;;13.09;79.71;100103.53;4984719;28;105835;-68
2021/09/15 05:27:48;;;;;;;25.52;20.83;;;;;;;13.19;79.16;100107.56;4984239;28;106137;-63
2021/09/15 05:30:14;;;;;;;27.10;21.42;;;;;;;13.33;79.60;100107.69;4984133;28;105805;-67
2021/09/15 05:32:40;;;;;;;27.67;20.63;;;;;;;13.41;78.94;100112.09;4984103;28;106027;-67
2021/09/15 05:35:10;;;;;;;25.48;19.50;;;;;;;13.52;79.31;100117.78;4985038;28;106031;-68
2021/09/15 05:37:35;;;;;;;26.10;21.67;;;;;;;13.70;79.25;100124.53;4984188;28;105847;-69
2021/09/15 05:40:01;;;;;;;29.95;24.05;;;;;;;13.82;79.01;100125.69;4983912;28;105858;-69
2021/09/15 05:42:27;;;;;;;32.50;24.45;;;;;;;13.96;79.12;100120.44;4983639;28;105765;-62
2021/09/15 05:44:53;;;;;;;31.38;22.52;;;;;;;14.11;79.20;100113.13;4984472;28;105859;-62
2021/09/15 05:47:18;;;;;;;31.45;20.95;;;;;;;14.31;78.81;100118.63;4983687;28;106180;-67
2021/09/15 05:49:44;;;;;;;27.38;20.73;;;;;;;14.49;78.83;100112.75;4983846;28;106746;-68
2021/09/15 05:52:09;;;;;;;28.27;21.33;;;;;;;14.68;78.71;100113.06;4983116;28;105884;-66
2021/09/15 05:54:34;;;;;;;25.92;19.77;;;;;;;14.83;78.40;100105.72;4976082;28;105990;-68
2021/09/15 05:57:00;;;;;;;27.13;21.67;;;;;;;15.00;78.12;100097.31;4970911;28;106259;-67
2021/09/15 05:59:25;;;;;;;29.98;21.15;;;;;;;15.12;77.54;100095.69;4970206;28;106071;-68
2021/09/15 06:01:50;;;;;;;24.10;19.63;;;;;;;15.22;77.69;100090.75;4969946;28;106225;-68
2021/09/15 06:04:16;;;;;;;26.75;20.80;;;;;;;15.34;77.38;100098.22;4970997;28;105790;-68
2021/09/15 06:06:41;;;;;;;26.33;19.80;;;;;;;15.56;77.79;100088.94;4970295;28;105961;-66
2021/09/15 06:09:06;;;;;;;27.73;20.65;;;;;;;15.81;77.72;100091.03;4969660;28;114421;-68
2021/09/15 06:11:32;;;;;;;29.85;21.27;;;;;;;16.01;77.31;100085.66;4970019;28;105976;-67
2021/09/15 06:13:57;;;;;;;33.67;20.80;;;;;;;16.14;76.19;100084.81;4970586;28;106114;-69
2021/09/15 06:16:23;;;;;;;25.17;19.90;;;;;;;16.19;75.92;100084.19;4970254;28;106429;-68
2021/09/15 06:18:49;;;;;;;30.63;18.77;;;;;;;16.33;76.17;100082.31;4969748;28;106047;-65
2021/09/15 06:21:15;;;;;;;31.92;20.30;;;;;;;16.62;76.31;100080.16;4969882;28;106048;-70
2021/09/15 06:23:40;;;;;;;22.98;18.13;;;;;;;16.89;76.07;100081.72;4970563;28;106109;-68
2021/09/15 06:26:06;;;;;;;26.98;21.67;;;;;;;17.15;75.75;100082.59;4970352;28;106300;-67
2021/09/15 06:28:31;;;;;;;30.63;20.13;;;;;;;17.43;75.40;100084.09;4970014;28;107338;-68
2021/09/15 06:30:58;;;;;;;20.40;17.88;;;;;;;17.70;74.94;100089.25;4969825;28;105922;-70
2021/09/15 06:33:23;;;;;;;23.73;18.35;;;;;;;17.98;74.48;100085.34;4970738;28;105879;-70
2021/09/15 06:35:49;;;;;;;29.90;18.20;;;;;;;18.11;73.70;100085.19;4970040;28;106291;-69
2021/09/15 06:38:15;;;;;;;23.85;18.00;;;;;;;18.38;73.85;100088.44;4969685;28;106698;-67
2021/09/15 06:40:40;;;;;;;25.55;18.55;;;;;;;18.60;72.90;100082.59;4969574;28;105948;-70
2021/09/15 06:43:06;;;;;;;22.23;18.30;;;;;;;18.76;72.40;100090.06;4969839;28;107713;-68
2021/09/15 06:45:32;;;;;;;23.23;18.42;;;;;;;18.92;71.80;100088.66;4969501;28;106837;-67
2021/09/15 06:47:57;;;;;;;32.38;19.17;;;;;;;19.16;71.66;100093.31;4969484;28;106337;-63
2021/09/15 06:50:23;;;;;;;27.67;18.67;;;;;;;19.38;71.30;100085.53;4969346;28;105918;-64
2021/09/15 06:52:48;;;;;;;31.92;19.30;;;;;;;19.62;70.86;100089.09;4970435;28;105958;-63
2021/09/15 06:55:13;;;;;;;29.27;18.98;;;;;;;19.89;70.36;100092.22;4969579;28;106725;-65
2021/09/15 06:57:39;;;;;;;22.52;18.23;;;;;;;20.11;69.51;100088.94;4968464;28;128602;-68
2021/09/15 07:00:07;;;;;;;37.78;20.08;;;;;;;20.35;69.00;100097.84;4969649;28;105750;-69
2021/09/15 07:02:32;;;;;;;27.40;19.30;;;;;;;20.59;68.78;100092.41;4969626;28;106038;-67
2021/09/15 07:04:58;;;;;;;24.85;17.85;;;;;;;20.75;67.71;100088.97;4968862;28;106404;-67
2021/09/15 07:07:23;;;;;;;20.77;17.05;;;;;;;20.93;67.20;100093.38;4968072;28;107357;-68
2021/09/15 07:09:49;;;;;;;24.17;16.92;;;;;;;21.08;66.04;100095.56;4968951;28;106099;-65
2021/09/15 07:12:14;;;;;;;19.60;15.68;;;;;;;21.03;65.34;100100.06;4969314;28;108712;-66
2021/09/15 07:14:39;;;;;;;22.88;15.60;;;;;;;21.12;65.18;100094.00;4968572;28;106144;-60
2021/09/15 07:17:05;;;;;;;24.58;15.65;;;;;;;21.22;64.61;100093.38;4968197;28;105872;-60
2021/09/15 07:19:30;;;;;;;19.08;15.82;;;;;;;21.32;64.50;100092.72;4968153;28;105876;-63
2021/09/15 07:21:55;;;;;;;21.45;16.42;;;;;;;21.48;64.42;100091.09;4969250;28;105911;-63
2021/09/15 07:24:20;;;;;;;17.70;14.73;;;;;;;21.74;64.05;100092.38;4968633;28;106223;-64
2021/09/15 07:26:46;;;;;;;24.05;15.48;;;;;;;22.01;63.19;100101.72;4968158;28;106882;-62
2021/09/15 07:29:11;;;;;;;19.25;14.50;;;;;;;22.17;62.68;100095.47;4966838;28;106276;-63
2021/09/15 07:31:39;;;;;;;21.63;15.75;;;;;;;22.40;61.61;100102.56;4967478;28;106168;-62
2021/09/15 07:34:05;;;;;;;19.85;14.20;;;;;;;22.53;61.16;100106.03;4968247;28;106247;-65
2021/09/15 07:36:31;;;;;;;18.02;14.18;;;;;;;22.76;60.84;100104.94;4968309;28;105938;-63
2021/09/15 07:38:57;;;;;;;15.02;13.38;;;;;;;23.13;60.62;100104.31;4975641;28;106009;-68
2021/09/15 07:41:22;;;;;;;17.00;13.20;;;;;;;23.59;59.79;100112.88;4995948;28;106012;-66
2021/09/15 07:43:47;;;;;;;18.63;13.15;;;;;;;24.00;59.10;100109.66;4996482;28;106374;-69
2021/09/15 07:46:13;;;;;;;15.95;12.70;;;;;;;24.50;58.10;100115.69;4991800;28;107046;-67
2021/09/15 07:48:38;;;;;;;13.88;12.35;;;;;;;25.03;56.87;100114.81;4987812;28;105958;-66
2021/09/15 07:51:04;;;;;;;16.10;12.27;;;;;;;25.40;55.08;100113.84;4988804;28;105959;-65
2021/09/15 07:53:29;;;;;;;16.92;12.68;;;;;;;25.67;54.18;100116.28;4988310;28;106240;-67
2021/09/15 07:55:54;;;;;;;33.30;26.65;;;;;;;26.05;53.30;100118.75;4987927;28;111301;-64
2021/09/15 07:58:20;;;;;;;20.48;15.40;;;;;;;26.23;51.96;100118.19;4987978;28;105912;-65
2021/09/15 08:00:45;;;;;;;14.30;11.07;;;;;;;26.49;51.30;100123.56;4989189;28;105932;-62
2021/09/15 08:03:12;;;;;;;15.18;11.68;;;;;;;26.92;50.55;100121.22;4988198;28;105953;-60
2021/09/15 08:05:37;;;;;;;14.10;11.80;;;;;;;27.25;48.96;100121.56;4987660;28;107063;-64
2021/09/15 08:08:03;;;;;;;15.15;11.32;;;;;;;27.34;47.72;100125.34;4984785;28;106008;-61
2021/09/15 08:10:29;;;;;;;17.83;12.27;;;;;;;27.59;47.36;100123.56;4988138;28;105983;-61
2021/09/15 08:12:54;;;;;;;15.25;11.38;;;;;;;27.90;47.05;100117.81;4987860;28;106183;-65
2021/09/15 08:15:20;;;;;;;13.27;10.60;;;;;;;28.40;45.88;100120.34;4987778;28;106126;-67
2021/09/15 08:17:46;;;;;;;14.93;11.20;;;;;;;28.79;44.74;100118.53;4987073;28;106030;-68
2021/09/15 08:20:12;;;;;;;16.75;11.25;;;;;;;28.90;43.78;100122.78;4989084;28;105833;-61
2021/09/15 08:22:37;;;;;;;18.42;10.80;;;;;;;29.32;42.68;100117.53;4988225;28;106191;-64
2021/09/15 08:25:03;;;;;;;14.95;10.32;;;;;;;29.49;41.27;100115.06;4987916;28;106177;-64
2021/09/15 08:27:28;;;;;;;13.77;9.45;;;;;;;29.85;41.24;100117.25;4986585;28;106026;-65
2021/09/15 08:29:54;;;;;;;12.57;9.38;;;;;;;30.52;40.22;100109.69;4989735;28;106269;-62
2021/09/15 08:32:19;;;;;;;14.23;9.70;;;;;;;31.22;38.80;100118.63;4988684;28;106219;-63
2021/09/15 08:34:44;;;;;;;13.32;9.43;;;;;;;32.15;37.57;100116.38;4988935;28;106695;-61
2021/09/15 08:37:10;;;;;;;15.68;9.18;;;;;;;32.70;34.26;100118.69;4988702;28;106235;-61
2021/09/15 08:39:35;;;;;;;11.10;9.13;;;;;;;33.74;33.59;100122.59;4989133;28;105866;-63
2021/09/15 08:42:00;;;;;;;10.95;8.45;;;;;;;34.49;32.14;100110.34;4988346;28;106015;-71
2021/09/15 08:44:26;;;;;;;12.85;7.50;;;;;;;35.73;30.48;100122.06;4986852;28;106000;-62
2021/09/15 08:46:56;;;;;;;9.57;7.45;;;;;;;37.26;27.97;100110.72;4984853;28;106038;-64
2021/09/15 08:49:23;;;;;;;11.52;7.80;;;;;;;38.71;25.51;100118.03;4986877;28;106102;-63
2021/09/15 08:51:48;;;;;;;13.10;7.75;;;;;;;39.87;24.40;100114.78;4986420;28;106019;-64
2021/09/15 08:54:14;;;;;;;19.45;14.57;;;;;;;41.22;22.79;100105.22;4986534;28;106274;-63
2021/09/15 08:56:40;;;;;;;19.02;7.70;;;;;;;42.27;21.75;100109.88;4985994;28;106278;-64
2021/09/15 08:59:06;;;;;;;14.57;8.00;;;;;;;43.71;20.39;100099.25;4986928;28;106171;-64
2021/09/15 09:01:31;;;;;;;12.65;7.50;;;;;;;44.72;19.22;100104.81;4986557;28;106203;-65
2021/09/15 09:03:57;;;;;;;9.20;6.78;;;;;;;45.04;18.40;100106.66;4987211;28;106094;-64
2021/09/15 09:06:30;;;;;;;12.52;6.88;;;;;;;44.65;18.36;100099.19;4985420;28;106553;-64
2021/09/15 09:08:57;;;;;;;11.52;7.05;;;;;;;44.61;18.22;100092.78;4985379;28;106425;-62
2021/09/15 09:11:27;;;;;;;12.10;7.35;;;;;;;45.00;17.82;100096.66;4984779;28;106080;-63
2021/09/15 09:13:54;;;;;;;15.15;7.28;;;;;;;44.86;17.34;100091.91;4986009;28;106131;-63
2021/09/15 09:16:36;;;;;;;11.05;6.63;;;;;;;44.47;17.64;100095.63;4985890;28;106193;-64
2021/09/15 09:19:04;;;;;;;10.93;6.15;;;;;;;44.54;17.49;100098.44;4986677;28;106000;-65
2021/09/15 09:21:32;;;;;;;8.50;6.45;;;;;;;45.21;16.77;100101.41;4985530;28;106224;-63
2021/09/15 09:23:59;;;;;;;10.93;6.32;;;;;;;45.86;15.93;100101.78;4985675;28;106859;-63
2021/09/15 09:26:54;;;;;;;7.53;5.50;;;;;;;45.52;16.14;100093.19;4985979;28;106768;-66
2021/09/15 09:29:24;;;;;;;12.95;8.07;;;;;;;46.08;15.87;100091.16;4987864;28;106061;-63
2021/09/15 09:32:01;;;;;;;9.80;6.35;;;;;;;46.70;15.44;100082.06;4989466;28;107004;-63
2021/09/15 09:34:28;;;;;;;8.23;5.38;;;;;;;47.50;14.79;100076.16;4989089;28;106571;-62
2021/09/15 09:37:05;;;;;;;9.70;5.15;;;;;;;48.25;13.89;100072.06;4989487;28;106072;-63
2021/09/15 09:39:38;;;;;;;11.20;6.00;;;;;;;48.76;13.28;100066.22;4973428;28;106352;-65
2021/09/15 09:42:17;;;;;;;6.60;5.07;;;;;;;48.82;13.39;100071.31;4971923;28;106228;-66
2021/09/15 09:44:42;;;;;;;7.82;5.13;;;;;;;48.28;13.19;100057.09;4970759;28;106708;-65
2021/09/15 09:47:25;;;;;;;10.80;4.93;;;;;;;48.65;13.13;100054.31;4970190;28;111707;-64
2021/09/15 09:50:17;;;;;;;7.20;4.57;;;;;;;47.75;13.42;100061.63;4971330;28;106020;-66
2021/09/15 09:53:01;;;;;;;14.90;5.28;;;;;;;47.23;13.72;100060.03;4971003;28;105849;-70
2021/09/15 09:55:37;;;;;;;7.53;4.65;;;;;;;46.21;14.16;100059.66;4970465;28;106340;-63
2021/09/15 09:58:04;;;;;;;6.40;4.40;;;;;;;45.52;14.73;100054.66;4970676;28;106219;-64
2021/09/15 10:00:31;;;;;;;5.72;4.78;;;;;;;45.33;14.79;100060.75;4970866;28;105929;-62
2021/09/15 10:03:02;;;;;;;7.07;4.25;;;;;;;45.15;14.95;100060.88;4970936;28;106097;-67
2021/09/15 10:05:28;;;;;;;7.25;4.88;;;;;;;44.24;15.30;100055.56;4970675;28;106058;-66
2021/09/15 10:07:53;;;;;;;6.68;4.78;;;;;;;43.66;16.22;100051.19;4970149;28;106089;-66
2021/09/15 10:10:21;;;;;;;5.63;4.50;;;;;;;43.17;16.20;100047.91;4970396;28;106038;-65
2021/09/15 10:12:50;;;;;;;7.43;5.25;;;;;;;42.50;16.63;100039.63;4969887;28;106124;-63
2021/09/15 10:15:16;;;;;;;7.82;4.50;;;;;;;41.91;17.59;100042.41;4969580;28;106059;-63
2021/09/15 10:17:55;;;;;;;8.27;4.75;;;;;;;42.07;17.21;100040.13;4969785;28;105972;-63
2021/09/15 10:20:25;;;;;;;5.85;4.47;;;;;;;42.82;17.09;100033.38;4970788;28;106392;-62
2021/09/15 10:22:50;;;;;;;6.95;4.97;;;;;;;43.58;16.35;100036.34;4969881;28;106139;-66
2021/09/15 10:25:17;;;;;;;7.85;4.72;;;;;;;44.10;16.18;100035.94;4969767;28;106164;-66
2021/09/15 10:27:58;;;;;;;8.52;4.65;;;;;;;44.87;15.55;100045.78;4969562;28;105924;-66
2021/09/15 10:30:48;;;;;;;7.00;5.22;;;;;;;45.32;14.84;100036.66;4970555;28;105877;-62
2021/09/15 10:33:35;;;;;;;7.45;4.75;;;;;;;45.22;15.17;100029.91;4969607;28;105905;-64
2021/09/15 10:36:00;;;;;;;8.23;4.68;;;;;;;46.64;14.27;100019.75;4969519;28;105812;-62
2021/09/15 10:38:55;;;;;;;6.93;4.18;;;;;;;46.33;14.19;100024.53;4968865;28;105937;-62
2021/09/15 10:41:32;;;;;;;7.97;4.40;;;;;;;46.34;13.87;100026.16;4969762;28;105823;-63
2021/09/15 10:44:06;;;;;;;7.15;3.97;;;;;;;46.52;13.69;100025.91;4968880;28;106368;-63
2021/09/15 10:46:32;;;;;;;6.47;4.55;;;;;;;46.10;13.95;100026.78;4969516;28;107231;-62
2021/09/15 10:49:18;;;;;;;6.38;4.65;;;;;;;44.86;15.13;100018.88;4969514;28;106198;-63
2021/09/15 10:51:44;;;;;;;5.35;4.10;;;;;;;43.48;16.11;100014.75;4968967;28;105975;-61
2021/09/15 10:54:38;;;;;;;7.50;4.50;;;;;;;41.08;17.56;100006.09;4969491;28;106136;-62
2021/09/15 10:57:16;;;;;;;6.45;4.40;;;;;;;39.01;19.43;100008.88;4967581;28;106330;-62
2021/09/15 10:59:48;;;;;;;7.53;4.97;;;;;;;38.15;21.02;99995.88;4967087;28;106549;-62
2021/09/15 11:02:41;;;;;;;7.70;4.30;;;;;;;38.32;20.47;99994.72;4968420;28;105912;-62
2021/09/15 11:05:25;;;;;;;5.45;4.18;;;;;;;38.65;20.58;99991.44;4967761;28;106363;-63
2021/09/15 11:07:50;;;;;;;8.55;4.80;;;;;;;40.06;19.20;99992.00;4967133;28;105996;-62
2021/09/15 11:10:39;;;;;;;6.47;4.57;;;;;;;41.03;18.18;99989.69;4967182;28;105969;-67
2021/09/15 11:13:08;;;;;;;9.20;4.32;;;;;;;41.35;17.81;99983.59;4969813;28;106048;-67
2021/09/15 11:15:49;;;;;;;6.70;4.00;;;;;;;41.54;17.57;99976.97;4968824;28;106252;-67
2021/09/15 11:18:26;;;;;;;7.78;4.28;;;;;;;40.91;18.20;99971.19;4969438;28;106405;-65
2021/09/15 11:20:59;;;;;;;4.80;3.90;;;;;;;39.59;19.13;99982.06;4968781;28;106120;-65
2021/09/15 11:23:26;;;;;;;6.32;3.92;;;;;;;39.78;19.36;99975.66;4969447;28;105940;-66
2021/09/15 11:25:52;;;;;;;9.38;3.80;;;;;;;40.80;18.24;99975.03;4968997;28;106264;-65
2021/09/15 11:28:19;;;;;;;7.35;3.75;;;;;;;40.72;17.87;99969.38;4969138;28;106676;-66
2021/09/15 11:30:51;;;;;;;5.35;3.25;;;;;;;39.48;18.42;99975.50;4968683;28;106332;-66
2021/09/15 11:33:27;;;;;;;7.05;3.25;;;;;;;38.13;19.11;99971.22;4969828;28;106034;-64
2021/09/15 11:35:58;;;;;;;5.40;4.00;;;;;;;37.08;20.23;99968.59;4969507;28;106108;-64
2021/09/15 11:38:28;;;;;;;7.90;4.93;;;;;;;36.02;21.54;99965.09;4968834;28;105882;-66
2021/09/15 11:41:04;;;;;;;8.40;4.13;;;;;;;36.47;21.74;99954.97;4969037;28;105986;-62
2021/09/15 11:43:29;;;;;;;9.13;4.55;;;;;;;36.30;21.86;99956.84;4969570;28;106042;-62
2021/09/15 11:45:54;;;;;;;7.28;4.85;;;;;;;36.22;21.81;99960.56;4969378;28;106152;-63
2021/09/15 11:48:27;;;;;;;9.20;5.22;;;;;;;36.75;21.60;99957.78;4969056;28;106481;-65
2021/09/15 11:50:54;;;;;;;9.02;4.28;;;;;;;37.39;20.95;99955.94;4968924;28;106070;-63
2021/09/15 11:53:20;;;;;;;5.63;4.57;;;;;;;37.40;20.55;99962.31;4968896;28;106149;-66
2021/09/15 11:55:50;;;;;;;6.82;5.85;;;;;;;36.81;21.23;99958.34;4968893;28;106425;-62
2021/09/15 11:58:17;;;;;;;5.75;4.38;;;;;;;37.28;20.57;99957.63;4968813;28;106069;-61
2021/09/15 12:00:43;;;;;;;8.27;4.43;;;;;;;37.41;20.50;99963.94;4968700;28;106618;-61
2021/09/15 12:03:12;;;;;;;5.32;4.22;;;;;;;37.40;20.30;99953.97;4969435;28;106060;-62
2021/09/15 12:05:44;;;;;;;6.28;4.30;;;;;;;36.95;20.83;99952.38;4968773;28;106132;-64
2021/09/15 12:08:11;;;;;;;9.75;4.57;;;;;;;36.58;21.39;99950.53;4968710;28;106232;-61
2021/09/15 12:10:37;;;;;;;6.13;4.38;;;;;;;36.78;21.48;99942.38;4968234;28;106113;-64
2021/09/15 12:13:03;;;;;;;6.88;5.10;;;;;;;37.17;20.90;99942.63;4968952;28;106518;-64
2021/09/15 12:15:28;;;;;;;10.80;5.75;;;;;;;37.29;21.09;99934.28;4968405;28;106355;-63
2021/09/15 12:17:59;;;;;;;8.32;5.22;;;;;;;36.74;21.66;99934.78;4968723;28;105678;-65
2021/09/15 12:21:00;;;;;;;8.18;5.28;;;;;;;36.28;22.22;99923.13;4966967;28;106393;-63
2021/09/15 12:23:34;;;;;;;7.60;5.05;;;;;;;36.45;22.08;99929.56;4967111;28;106327;-62
2021/09/15 12:26:01;;;;;;;7.85;5.78;;;;;;;36.44;21.86;99922.41;4968225;28;106379;-63
2021/09/15 12:28:29;;;;;;;14.23;6.45;;;;;;;35.91;22.48;99918.47;4968365;28;106994;-62
2021/09/15 12:30:56;;;;;;;8.43;6.43;;;;;;;36.22;22.78;99916.19;4968270;28;106065;-66
2021/09/15 12:33:38;;;;;;;8.30;6.50;;;;;;;37.31;21.97;99914.47;4968527;28;106015;-63
2021/09/15 12:36:17;;;;;;;9.15;5.10;;;;;;;38.06;21.05;99916.25;4967974;28;106283;-62
2021/09/15 12:39:02;;;;;;;6.68;5.35;;;;;;;37.86;20.99;99900.72;4967875;28;106148;-63
2021/09/15 12:41:29;;;;;;;6.40;5.22;;;;;;;37.65;21.22;99904.59;4967391;28;106233;-63
2021/09/15 12:44:10;;;;;;;7.13;4.80;;;;;;;36.38;21.71;99897.69;4967886;28;106142;-62
2021/09/15 12:46:35;;;;;;;6.28;4.43;;;;;;;36.29;22.28;99893.41;4968104;28;105900;-61
2021/09/15 12:49:01;;;;;;;7.68;4.85;;;;;;;37.73;20.89;99886.13;4967706;28;105923;-61
2021/09/15 12:51:28;;;;;;;9.25;4.65;;;;;;;38.33;20.32;99874.75;4967626;28;107021;-61
2021/09/15 12:53:55;;;;;;;10.85;7.38;;;;;;;38.52;19.29;99873.09;4968639;28;106058;-63
2021/09/15 12:56:22;;;;;;;10.02;5.47;;;;;;;38.39;19.67;99872.47;4967854;28;105858;-62
2021/09/15 12:58:48;;;;;;;7.22;4.60;;;;;;;38.95;19.37;99865.56;4967154;28;106544;-62
2021/09/15 13:49:35;;;;;;;5.10;3.97;;;;;;;30.63;29.01;99827.97;5019543;28;106080;-64
2021/09/15 13:52:00;;;;;;;6.05;4.10;;;;;;;30.52;29.22;99832.94;5019222;27;105824;-67
2021/09/15 13:54:26;;;;;;;5.70;3.95;;;;;;;30.50;30.23;99815.13;5005257;28;106034;-64
2021/09/15 13:56:51;;;;;;;6.18;5.32;;;;;;;30.51;30.02;99825.81;5004870;28;105881;-64
2021/09/15 13:59:17;;;;;;;6.32;5.20;;;;;;;30.20;30.38;99822.97;5004112;28;105946;-67
2021/09/15 14:01:42;;;;;;;8.15;4.25;;;;;;;30.03;30.53;99821.69;5005926;28;106042;-66
2021/09/15 14:04:07;;;;;;;8.13;4.57;;;;;;;29.88;30.76;99824.78;5004641;28;105999;-67
2021/09/15 14:06:33;;;;;;;6.53;3.85;;;;;;;29.62;31.92;99822.59;5004862;28;105836;-64
2021/09/15 14:08:58;;;;;;;5.28;3.80;;;;;;;29.37;31.70;99827.47;5004716;28;105911;-64
2021/09/15 14:11:23;;;;;;;6.05;3.60;;;;;;;29.04;32.22;99822.03;5004774;28;105818;-67
2021/09/15 14:13:49;;;;;;;4.95;4.20;;;;;;;28.87;32.53;99819.88;5007001;28;106630;-67
2021/09/15 14:16:14;;;;;;;10.48;5.20;;;;;;;28.59;33.12;99810.75;5010083;28;105958;-68
2021/09/15 14:18:39;;;;;;;10.60;5.43;;;;;;;28.37;33.26;99811.41;5014889;27;106301;-63
2021/09/15 14:21:05;;;;;;;5.18;4.20;;;;;;;28.14;34.08;99818.59;5017048;28;106046;-64
2021/09/15 14:23:31;;;;;;;7.40;4.47;;;;;;;27.86;34.44;99807.47;5008617;27;105885;-63
2021/09/15 14:25:56;;;;;;;8.32;4.63;;;;;;;27.72;34.89;99803.84;5020729;27;105952;-63
2021/09/15 14:28:22;;;;;;;4.45;3.47;;;;;;;27.48;35.30;99801.97;5011331;28;106276;-62
2021/09/15 14:30:47;;;;;;;4.65;3.88;;;;;;;27.23;35.87;99800.31;5014765;28;106071;-65
2021/09/15 14:33:12;;;;;;;6.45;4.50;;;;;;;27.05;36.14;99801.88;5018918;28;106226;-66
2021/09/15 14:35:38;;;;;;;8.05;5.05;;;;;;;26.91;36.34;99793.56;5007740;28;106590;-65
2021/09/15 14:38:03;;;;;;;11.93;7.40;;;;;;;26.85;36.83;99799.06;5018340;28;106918;-66
2021/09/15 14:40:29;;;;;;;16.23;8.80;;;;;;;26.80;37.05;99803.75;5012992;28;106014;-64
2021/09/15 14:42:54;;;;;;;14.70;6.25;;;;;;;26.73;37.27;99800.56;5012952;27;106018;-66
2021/09/15 14:45:20;;;;;;;9.98;5.18;;;;;;;26.73;37.59;99800.56;5018839;28;106120;-66
2021/09/15 14:47:45;;;;;;;8.07;5.53;;;;;;;26.70;37.77;99793.75;5006942;28;106514;-67
2021/09/15 14:50:11;;;;;;;6.65;4.30;;;;;;;26.75;37.71;99801.06;5019717;27;105966;-64
2021/09/15 14:52:37;;;;;;;6.50;4.68;;;;;;;26.75;37.93;99801.06;5012578;28;106319;-63
2021/09/15 14:55:05;;;;;;;7.78;4.20;;;;;;;26.66;37.96;99782.56;5011539;27;105904;-66
2021/09/15 14:57:30;;;;;;;9.55;5.13;;;;;;;26.62;38.35;99792.41;5020057;28;106925;-66
2021/09/15 14:59:55;;;;;;;7.78;5.35;;;;;;;26.57;38.50;99792.47;5000047;27;105939;-66
2021/09/15 15:02:21;;;;;;;7.28;5.43;;;;;;;26.51;38.67;99790.88;5003633;28;106139;-64
2021/09/15 15:04:46;;;;;;;11.55;5.90;;;;;;;26.45;39.17;99784.66;4990441;28;106029;-62
2021/09/15 15:07:11;;;;;;;11.10;7.28;;;;;;;26.44;39.26;99779.50;5003976;28;105960;-63
2021/09/15 15:09:38;;;;;;;10.35;6.25;;;;;;;26.41;39.51;99778.16;4995080;28;105976;-64
2021/09/15 15:12:03;;;;;;;8.88;5.70;;;;;;;26.42;39.58;99787.13;5005713;28;106261;-66
2021/09/15 15:14:29;;;;;;;9.27;4.90;;;;;;;26.42;39.65;99784.41;4998070;28;106113;-65
2021/09/15 15:16:54;;;;;;;7.47;4.82;;;;;;;26.40;39.78;99783.91;4998936;28;106214;-66
2021/09/15 15:19:24;;;;;;;6.68;5.07;;;;;;;26.42;40.09;99778.94;5006229;28;105899;-66
2021/09/15 15:21:50;;;;;;;5.00;4.32;;;;;;;26.39;40.25;99776.78;4993870;28;105809;-65
2021/09/15 15:24:16;;;;;;;5.68;4.50;;;;;;;26.36;40.39;99770.00;5003749;28;106341;-64
2021/09/15 15:26:41;;;;;;;9.48;4.80;;;;;;;26.31;40.43;99781.78;5006440;28;106270;-63
2021/09/15 15:29:09;;;;;;;9.27;4.60;;;;;;;26.22;40.71;99775.28;4998629;28;106121;-64
2021/09/15 15:31:34;;;;;;;7.60;5.20;;;;;;;26.19;41.00;99778.59;5000084;28;106838;-64
2021/09/15 15:34:00;;;;;;;7.07;4.50;;;;;;;26.15;41.20;99772.06;5008145;28;105951;-65
2021/09/15 15:36:25;;;;;;;7.72;5.00;;;;;;;26.16;41.36;99779.16;4990479;28;106010;-65
2021/09/15 15:38:51;;;;;;;7.50;5.22;;;;;;;26.19;41.28;99778.59;4990913;28;106371;-64
2021/09/15 15:41:16;;;;;;;8.25;6.05;;;;;;;26.17;41.30;99773.41;4989971;28;106354;-65
2021/09/15 15:43:41;;;;;;;8.45;4.90;;;;;;;26.14;41.43;99765.78;4989585;28;106371;-65
2021/09/15 15:46:07;;;;;;;5.70;5.00;;;;;;;26.10;41.28;99767.44;4989269;28;106216;-65
2021/09/15 15:48:32;;;;;;;8.15;5.30;;;;;;;26.08;41.71;99763.38;4989760;28;106074;-67
2021/09/15 15:50:57;;;;;;;10.80;5.70;;;;;;;26.04;41.64;99754.97;4985504;28;106294;-66
2021/09/15 15:53:25;;;;;;;7.97;5.85;;;;;;;25.99;41.68;99766.69;4994607;28;106664;-64
2021/09/15 15:55:50;;;;;;;8.18;6.18;;;;;;;25.91;42.03;99770.00;4992096;28;106132;-63
2021/09/15 15:58:18;;;;;;;15.00;9.90;;;;;;;25.83;42.04;99759.69;4989699;28;105985;-61
2021/09/15 16:00:44;;;;;;;15.77;10.85;;;;;;;25.75;42.30;99760.28;4989530;28;106304;-62
2021/09/15 16:03:09;;;;;;;13.00;6.78;;;;;;;25.65;42.35;99764.69;4967692;28;106004;-65
2021/09/15 16:05:35;;;;;;;8.55;6.47;;;;;;;25.53;42.88;99761.50;4967829;28;114640;-65
2021/09/15 16:08:01;;;;;;;7.07;5.20;;;;;;;25.40;42.68;99760.19;4969011;28;106428;-63
2021/09/15 16:10:27;;;;;;;7.05;5.80;;;;;;;25.30;43.31;99761.03;4968210;28;106235;-64
2021/09/15 16:12:52;;;;;;;8.85;5.43;;;;;;;25.21;43.25;99767.34;4966937;28;106025;-65
2021/09/15 16:15:18;;;;;;;7.90;6.30;;;;;;;25.09;43.48;99762.19;4967815;28;106008;-67
2021/09/15 16:17:43;;;;;;;11.13;6.13;;;;;;;24.99;44.04;99763.84;4968293;28;106132;-65
2021/09/15 16:20:09;;;;;;;7.10;5.20;;;;;;;24.88;44.35;99762.25;4967949;28;106146;-59
2021/09/15 16:22:34;;;;;;;14.18;6.60;;;;;;;24.77;44.52;99760.66;4967910;28;106587;-64
2021/09/15 16:24:59;;;;;;;12.48;7.07;;;;;;;24.70;44.67;99760.09;4965688;28;106023;-62
2021/09/15 16:27:25;;;;;;;15.23;8.55;;;;;;;24.60;44.89;99756.28;4968591;28;106180;-62
2021/09/15 16:29:50;;;;;;;7.47;6.57;;;;;;;24.51;45.11;99760.66;4967786;28;106789;-64
2021/09/15 16:32:16;;;;;;;11.60;6.82;;;;;;;24.41;45.31;99756.03;4967687;28;106295;-58
2021/09/15 16:34:41;;;;;;;11.00;5.88;;;;;;;24.35;45.67;99754.41;4967689;28;106047;-62
2021/09/15 16:37:06;;;;;;;9.13;6.93;;;;;;;24.28;45.97;99754.66;4985541;28;106021;-69
2021/09/15 16:39:32;;;;;;;9.15;5.97;;;;;;;24.18;46.15;99760.13;5006294;28;106355;-68
2021/09/15 16:41:57;;;;;;;8.05;6.47;;;;;;;24.10;46.45;99749.78;5007829;28;106020;-67
2021/09/15 16:44:22;;;;;;;10.05;5.75;;;;;;;23.99;46.91;99752.47;5007607;28;106355;-69
2021/09/15 16:46:48;;;;;;;10.73;6.10;;;;;;;23.93;46.61;99752.72;5008319;28;106169;-66
2021/09/15 16:49:13;;;;;;;8.27;5.75;;;;;;;23.84;47.09;99744.28;5007390;28;106373;-67